Aachen, Germany

5:44 AM CET on December 18, 2014 (GMT +0100)
Hitfeld | Change Station
CLOSE
Current Station
Personal Weather Station
Location: Aachen, NORDRHEIN-WESTFALEN
Elevation: 866 ft
Nearby Weather Stations

Elev 866 ft 50.74 °N, 6.13 °E | Updated 2 seconds ago

Heavy Drizzle
Heavy Drizzle
49.5 °F
Feels Like 50 °F
N
3.0
Wind Variable Wind from West
Gusts 10.0 mph

Today
High -- | Low -- °F
--% Chance of Precip.
Yesterday
High -- | Low -- °F
Precip. -- in
8:33 AM 4:30 PM
Waning Crescent, 17% visible
Pressure 29.83 in
Visibility 1.4 miles
Clouds Scattered Clouds 200 ft
Mostly Cloudy 300 ft
Mostly Cloudy 500 ft
Windchill 50 °F
Dew Point 49 °F
Humidity 97%
Rainfall 0.02 in
Snow Depth Not available.
UV 0.0 out of 12
Pollen Not available.
Air Quality Not available.
Flu Activity Not available.
METAR EHBK 180425Z AUTO 21014KT 2200 +DZ SCT002 BKN003 BKN005 10/10 Q1010

More Conditions Fewer Conditions

Pressure 29.83 in
Visibility 1.4 miles
Clouds Scattered Clouds 200 ft
Mostly Cloudy 300 ft
Mostly Cloudy 500 ft
Windchill 50 °F
Dew Point 49 °F
Humidity 97%
Rainfall 0.02 in
Snow Depth Not available.
UV 0.0 out of 12
Pollen Not available.
Air Quality Not available.
Flu Activity Not available.
METAR EHBK 180425Z AUTO 21014KT 2200 +DZ SCT002 BKN003 BKN005 10/10 Q1010

More Conditions Fewer Conditions

10-Day Weather Forecast

Almanac

Astronomy

Dec. 18, 2014 Rise Set
Actual Time
Civil Twilight
Nautical Twilight
Astronomical Twilight
Moon
Length of Visible Light
Length of Day
Tomorrow will be .
, % of the Moon is Illuminated

Today's Extremes

Country Highs Country Lows

Community

WunderPhotos

Upload Photos

1,778,883 photos uploaded!

WunderBlogs® & News

Nearby

Air Quality

  Air Quality AQ Index Pollutant
Not available.

Snow Depth

Station Depth Elevation

Earthquake Activity

City Distance Mag. Time & Date
Minimum magnitude displayed is 2.5.

Coastal Water Temperatures

Place Temperature

Nearby Weather Stations